Time;durP1;ratioP1;P1;durP2;ratioP2;P2;SDS_P1;SDS_P2;PMS_P1;PMS_P2;Temp;Humidity;BMP_temperature;BMP_pressure;BME280_temperature;BME280_humidity;BME280_pressure;Samples;Min_cycle;Max_cycle;Signal;HPM_P1;HPM_P2
2022/02/18 00:01:56;;;;;;;10.40;3.40;;;6.90;99.90;;;;;;5120212;28;20164;-79
2022/02/18 00:04:22;;;;;;;10.33;2.83;;;6.90;99.90;;;;;;5119444;28;20263;-79
2022/02/18 00:06:47;;;;;;;15.23;3.17;;;6.90;99.90;;;;;;5118364;28;20222;-79
2022/02/18 00:09:13;;;;;;;10.90;3.13;;;6.90;99.90;;;;;;5118550;28;20197;-80
2022/02/18 00:11:39;;;;;;;5.27;2.30;;;6.90;99.90;;;;;;5121894;28;20177;-79
2022/02/18 00:14:04;;;;;;;6.47;2.27;;;6.80;99.90;;;;;;5116906;28;20252;-79
2022/02/18 00:16:30;;;;;;;10.43;2.90;;;6.90;99.90;;;;;;5117468;28;20594;-79
2022/02/18 00:18:56;;;;;;;13.37;3.13;;;6.90;99.90;;;;;;5118567;28;20215;-80
2022/02/18 00:21:21;;;;;;;17.43;3.23;;;6.90;99.90;;;;;;5118774;28;20172;-79
2022/02/18 00:23:47;;;;;;;6.00;2.30;;;6.90;99.90;;;;;;5124179;28;20164;-79
2022/02/18 00:26:12;;;;;;;12.83;3.00;;;6.90;99.90;;;;;;5119462;28;20176;-79
2022/02/18 00:28:38;;;;;;;13.80;4.67;;;6.90;99.90;;;;;;5118622;28;20222;-80
2022/02/18 00:31:04;;;;;;;14.10;3.30;;;6.80;99.90;;;;;;5119277;28;20176;-79
2022/02/18 00:33:29;;;;;;;10.33;3.13;;;6.80;99.90;;;;;;5123549;28;20176;-79
2022/02/18 00:35:55;;;;;;;9.03;2.83;;;6.80;99.90;;;;;;5117508;28;20175;-79
2022/02/18 00:38:21;;;;;;;12.63;3.33;;;6.80;99.90;;;;;;5116567;28;20174;-80
2022/02/18 00:40:46;;;;;;;12.90;3.13;;;6.80;99.90;;;;;;5121089;28;20288;-80
2022/02/18 00:43:13;;;;;;;11.33;4.13;;;6.80;99.90;;;;;;5123972;28;20192;-80
2022/02/18 00:45:39;;;;;;;11.60;2.67;;;6.80;99.90;;;;;;5125005;28;20176;-80
2022/02/18 00:48:05;;;;;;;12.00;3.20;;;6.70;99.90;;;;;;5122869;28;20169;-79
2022/02/18 00:50:30;;;;;;;7.50;2.17;;;6.70;99.90;;;;;;5122116;28;20193;-79
2022/02/18 00:52:56;;;;;;;13.33;2.97;;;6.70;99.90;;;;;;5123089;28;20214;-80
2022/02/18 00:55:22;;;;;;;11.90;3.23;;;6.70;99.90;;;;;;5122970;28;20172;-79
2022/02/18 00:57:48;;;;;;;7.83;2.77;;;6.70;99.90;;;;;;5123962;28;20177;-79
2022/02/18 01:00:16;;;;;;;13.07;2.73;;;6.70;99.90;;;;;;5122737;28;20315;-79
2022/02/18 01:02:42;;;;;;;12.93;2.90;;;6.70;99.90;;;;;;5124535;28;20172;-81
2022/02/18 01:05:08;;;;;;;13.83;3.13;;;6.70;99.90;;;;;;5122143;28;20169;-79
2022/02/18 01:07:34;;;;;;;10.33;3.00;;;6.70;99.90;;;;;;5121389;28;20173;-79
2022/02/18 01:10:01;;;;;;;11.60;2.97;;;6.70;99.90;;;;;;5119313;28;20700;-79
2022/02/18 01:12:26;;;;;;;9.70;2.80;;;6.70;99.90;;;;;;5124220;28;20188;-79
2022/02/18 01:14:52;;;;;;;9.20;3.07;;;6.70;99.90;;;;;;5125187;28;20175;-79
2022/02/18 01:17:18;;;;;;;11.40;3.07;;;6.70;99.90;;;;;;5124566;28;20180;-79
2022/02/18 01:19:44;;;;;;;10.73;2.73;;;6.70;99.90;;;;;;5120811;28;20252;-79
2022/02/18 01:22:09;;;;;;;11.00;2.73;;;6.70;99.90;;;;;;5123548;28;20539;-79
2022/02/18 01:24:37;;;;;;;12.77;2.80;;;6.80;99.90;;;;;;5127264;28;20180;-80
2022/02/18 01:27:03;;;;;;;12.17;2.40;;;6.80;99.90;;;;;;5125137;28;20517;-79
2022/02/18 01:29:28;;;;;;;10.93;2.43;;;6.70;99.90;;;;;;5123263;28;20203;-79
2022/02/18 01:31:54;;;;;;;11.20;3.50;;;6.70;99.90;;;;;;5121617;28;20176;-79
2022/02/18 01:34:20;;;;;;;11.30;3.10;;;6.80;99.90;;;;;;5120451;28;20173;-79
2022/02/18 01:36:46;;;;;;;8.73;2.23;;;6.80;99.90;;;;;;5123830;28;20177;-80
2022/02/18 01:39:11;;;;;;;11.43;2.90;;;6.80;99.90;;;;;;5125675;28;20279;-80
2022/02/18 01:41:37;;;;;;;9.77;2.70;;;6.80;99.90;;;;;;5122379;28;20169;-79
2022/02/18 01:44:05;;;;;;;10.27;2.90;;;6.80;99.90;;;;;;5119638;28;20628;-79
2022/02/18 01:46:31;;;;;;;11.33;2.70;;;6.80;99.90;;;;;;5119762;28;20177;-79
2022/02/18 01:48:58;;;;;;;11.63;2.60;;;6.80;99.90;;;;;;5118442;28;20740;-78
2022/02/18 01:51:25;;;;;;;15.37;3.13;;;6.70;99.90;;;;;;5119429;28;20656;-79
2022/02/18 01:53:52;;;;;;;7.97;2.50;;;6.80;99.90;;;;;;5119365;28;20198;-78
2022/02/18 01:56:20;;;;;;;18.30;3.87;;;6.80;99.90;;;;;;5126584;28;20169;-79
2022/02/18 01:58:46;;;;;;;12.67;2.57;;;6.80;99.90;;;;;;5120332;28;20188;-79
2022/02/18 02:01:12;;;;;;;11.43;4.13;;;6.80;99.90;;;;;;5118532;28;20260;-79
2022/02/18 02:03:38;;;;;;;10.20;2.53;;;6.80;99.90;;;;;;5120668;28;20223;-80
2022/02/18 02:06:05;;;;;;;10.80;3.17;;;6.80;99.90;;;;;;5118227;28;20180;-79
2022/02/18 02:08:36;;;;;;;13.53;3.03;;;6.80;99.90;;;;;;5118821;28;20168;-79
2022/02/18 02:11:02;;;;;;;10.93;3.00;;;6.80;99.90;;;;;;5118220;28;20163;-79
2022/02/18 02:13:37;;;;;;;13.37;3.30;;;6.80;99.90;;;;;;5119884;28;20171;-79
2022/02/18 02:16:03;;;;;;;8.47;2.47;;;6.80;99.90;;;;;;5115645;28;20543;-79
2022/02/18 02:18:29;;;;;;;6.93;2.40;;;6.80;99.90;;;;;;5115903;28;20173;-79
2022/02/18 02:20:55;;;;;;;8.63;2.47;;;6.80;99.90;;;;;;5117402;28;20542;-79
2022/02/18 02:23:20;;;;;;;17.30;3.60;;;6.80;99.90;;;;;;5119228;28;20661;-79
2022/02/18 02:25:46;;;;;;;10.50;3.23;;;6.80;99.90;;;;;;5118556;28;20176;-79
2022/02/18 02:28:12;;;;;;;16.40;3.17;;;6.80;99.90;;;;;;5119542;28;20168;-79
2022/02/18 02:30:38;;;;;;;9.87;2.70;;;6.80;99.90;;;;;;5122154;28;20787;-80
2022/02/18 02:33:04;;;;;;;14.33;3.10;;;6.90;99.90;;;;;;5120991;28;20525;-79
2022/02/18 02:35:30;;;;;;;11.63;2.57;;;6.90;99.90;;;;;;5122424;28;20256;-81
2022/02/18 02:37:56;;;;;;;9.87;2.87;;;6.80;99.90;;;;;;5122538;28;20210;-79
2022/02/18 02:40:22;;;;;;;10.13;2.67;;;6.90;99.90;;;;;;5121666;28;20294;-80
2022/02/18 02:42:48;;;;;;;12.83;2.60;;;6.90;99.90;;;;;;5122648;28;20183;-81
2022/02/18 02:45:15;;;;;;;16.30;2.90;;;6.90;99.90;;;;;;5125225;28;20175;-80
2022/02/18 02:47:46;;;;;;;7.70;1.87;;;6.80;99.90;;;;;;5124117;28;20205;-80
2022/02/18 02:50:13;;;;;;;13.70;3.10;;;6.90;99.90;;;;;;5124361;28;20188;-79
2022/02/18 02:52:39;;;;;;;10.37;2.87;;;6.90;99.90;;;;;;5119981;28;20175;-79
2022/02/18 02:55:07;;;;;;;9.27;2.43;;;6.90;99.90;;;;;;5119504;28;20235;-80
2022/02/18 02:57:33;;;;;;;12.13;3.33;;;6.90;99.90;;;;;;5121392;28;20170;-80
2022/02/18 02:59:59;;;;;;;11.20;2.43;;;7.00;99.90;;;;;;5124988;28;20215;-80
2022/02/18 03:02:25;;;;;;;5.30;2.00;;;7.00;99.90;;;;;;5123814;28;20193;-79
2022/02/18 03:04:51;;;;;;;14.30;3.07;;;6.90;99.90;;;;;;5121790;28;20172;-79
2022/02/18 03:07:16;;;;;;;12.47;2.63;;;7.00;99.90;;;;;;5123200;28;20192;-80
2022/02/18 03:09:42;;;;;;;9.23;2.57;;;7.00;99.90;;;;;;5124433;28;20233;-80
2022/02/18 03:12:08;;;;;;;11.00;3.33;;;7.00;99.90;;;;;;5123604;28;20554;-80
2022/02/18 03:14:34;;;;;;;10.60;3.20;;;7.00;99.90;;;;;;5124708;28;20640;-79
2022/02/18 03:16:59;;;;;;;9.57;2.33;;;7.00;99.90;;;;;;5123254;28;20193;-79
2022/02/18 03:19:25;;;;;;;8.50;2.47;;;7.00;99.90;;;;;;5119085;28;20217;-79
2022/02/18 03:21:51;;;;;;;12.50;2.33;;;7.00;99.90;;;;;;5117077;28;20232;-79
2022/02/18 03:24:21;;;;;;;11.07;2.70;;;7.00;99.90;;;;;;5117086;28;20188;-79
2022/02/18 03:26:47;;;;;;;9.60;2.00;;;7.00;99.90;;;;;;5118398;28;20230;-79
2022/02/18 03:29:13;;;;;;;11.30;2.43;;;6.90;99.90;;;;;;5124053;28;20676;-79
2022/02/18 03:31:39;;;;;;;10.47;2.33;;;7.00;99.90;;;;;;5123931;28;20205;-80
2022/02/18 03:34:04;;;;;;;8.57;2.60;;;6.90;99.90;;;;;;5119510;28;20181;-80
2022/02/18 03:36:30;;;;;;;8.27;2.63;;;6.90;99.90;;;;;;5118222;28;20178;-79
2022/02/18 03:38:55;;;;;;;9.00;2.57;;;6.90;99.90;;;;;;5118554;28;20201;-80
2022/02/18 03:41:22;;;;;;;8.83;2.47;;;6.90;99.90;;;;;;5118309;28;20177;-79
2022/02/18 03:43:48;;;;;;;13.40;2.70;;;6.90;99.90;;;;;;5118690;28;20170;-79
2022/02/18 03:46:14;;;;;;;8.97;2.67;;;6.80;99.90;;;;;;5118257;28;20181;-79
2022/02/18 03:48:39;;;;;;;12.47;2.37;;;6.80;99.90;;;;;;5117722;28;20179;-80
2022/02/18 03:51:05;;;;;;;10.40;2.30;;;6.80;99.90;;;;;;5117750;28;20250;-79
2022/02/18 03:53:31;;;;;;;10.50;2.23;;;6.80;99.90;;;;;;5120351;28;20296;-79
2022/02/18 03:55:59;;;;;;;9.77;2.47;;;6.90;99.90;;;;;;5118571;28;20206;-79
2022/02/18 03:58:26;;;;;;;14.10;3.27;;;6.90;99.90;;;;;;5116387;28;20872;-78
2022/02/18 04:00:52;;;;;;;13.37;2.53;;;6.90;99.90;;;;;;5119480;28;20700;-79
2022/02/18 04:03:17;;;;;;;16.30;2.83;;;6.90;99.90;;;;;;5126214;28;20182;-79
2022/02/18 04:05:44;;;;;;;9.83;3.03;;;6.90;99.90;;;;;;5129626;28;20186;-79
2022/02/18 04:08:10;;;;;;;9.73;2.10;;;6.90;99.90;;;;;;5136506;28;20213;-79
2022/02/18 04:10:36;;;;;;;9.50;2.67;;;6.90;99.90;;;;;;5133950;28;20206;-79
2022/02/18 04:13:02;;;;;;;10.33;2.23;;;6.80;99.90;;;;;;5123142;28;20173;-80
2022/02/18 04:15:28;;;;;;;14.97;2.73;;;6.80;99.90;;;;;;5117690;28;20186;-79
2022/02/18 04:17:54;;;;;;;14.23;3.17;;;6.90;99.90;;;;;;5122212;28;20179;-79
2022/02/18 04:20:20;;;;;;;7.60;2.27;;;;;;;;;;5122108;28;20232;-79
2022/02/18 04:22:46;;;;;;;8.23;2.57;;;;;;;;;;5122369;28;20248;-80
2022/02/18 04:25:12;;;;;;;3.80;1.67;;;;;;;;;;5123640;28;20175;-80
2022/02/18 04:27:38;;;;;;;8.07;2.40;;;;;;;;;;5127827;28;20227;-79
2022/02/18 04:30:05;;;;;;;12.23;2.07;;;6.90;99.90;;;;;;5126107;28;20198;-79
2022/02/18 04:32:31;;;;;;;9.77;2.50;;;;;;;;;;5125819;28;20185;-79
2022/02/18 04:34:57;;;;;;;8.60;2.33;;;6.90;99.90;;;;;;5120796;28;20170;-79
2022/02/18 04:37:23;;;;;;;6.07;2.33;;;;;;;;;;5121916;28;20178;-79
2022/02/18 04:39:49;;;;;;;7.80;2.13;;;6.90;99.90;;;;;;5126564;28;20209;-80
2022/02/18 04:42:15;;;;;;;10.87;2.17;;;;;;;;;;5127263;28;20190;-80
2022/02/18 04:44:42;;;;;;;11.93;2.60;;;;;;;;;;5127313;28;20553;-79
2022/02/18 04:47:07;;;;;;;10.47;2.77;;;6.90;99.90;;;;;;5127182;28;20174;-79
2022/02/18 04:49:33;;;;;;;5.43;2.43;;;;;;;;;;5125801;28;20209;-79
2022/02/18 04:51:59;;;;;;;7.77;2.33;;;;;;;;;;5125252;28;20185;-79
2022/02/18 04:54:25;;;;;;;7.73;2.37;;;6.80;99.90;;;;;;5126992;28;20242;-79
2022/02/18 04:56:50;;;;;;;7.83;2.57;;;6.60;99.90;;;;;;5124174;28;20213;-79
2022/02/18 04:59:19;;;;;;;9.17;2.50;;;;;;;;;;5121989;28;20232;-79
2022/02/18 05:01:45;;;;;;;8.10;1.90;;;;;;;;;;5121408;28;20319;-80
2022/02/18 05:04:11;;;;;;;5.97;1.87;;;;;;;;;;5121611;28;20640;-79
2022/02/18 05:06:37;;;;;;;6.57;1.87;;;;;;;;;;5125629;28;20220;-79
2022/02/18 05:09:03;;;;;;;11.03;2.13;;;;;;;;;;5124841;28;20324;-79
2022/02/18 05:11:28;;;;;;;9.53;2.93;;;6.60;99.90;;;;;;5124546;28;20205;-79
2022/02/18 05:13:54;;;;;;;5.33;1.47;;;;;;;;;;5127350;28;20568;-80
2022/02/18 05:16:20;;;;;;;7.30;2.57;;;;;;;;;;5125761;28;20174;-79
2022/02/18 05:18:47;;;;;;;7.97;2.50;;;;;;;;;;5124293;28;20175;-79
2022/02/18 05:21:17;;;;;;;13.60;2.53;;;6.60;99.90;;;;;;5125781;28;20535;-79
2022/02/18 05:23:43;;;;;;;10.53;2.30;;;6.40;99.90;;;;;;5122748;28;20204;-79
2022/02/18 05:26:09;;;;;;;6.87;2.27;;;;;;;;;;5122034;28;20183;-79
2022/02/18 05:28:35;;;;;;;13.03;2.40;;;;;;;;;;5121106;28;20173;-79
2022/02/18 05:31:01;;;;;;;9.73;2.17;;;;;;;;;;5120329;28;20210;-79
2022/02/18 05:33:27;;;;;;;9.47;2.77;;;;;;;;;;5118505;28;20178;-79
2022/02/18 05:35:54;;;;;;;7.97;2.60;;;;;;;;;;5115996;28;20189;-79
2022/02/18 05:38:19;;;;;;;8.17;2.50;;;6.50;99.90;;;;;;5117686;28;20184;-79
2022/02/18 05:40:46;;;;;;;10.00;2.30;;;;;;;;;;5127267;28;20572;-79
2022/02/18 05:43:12;;;;;;;8.90;2.03;;;;;;;;;;5126348;28;20189;-79
2022/02/18 05:45:38;;;;;;;6.13;2.50;;;6.20;99.90;;;;;;5124496;28;20186;-79
2022/02/18 05:48:04;;;;;;;6.73;2.47;;;6.00;99.90;;;;;;5125698;28;20182;-79
2022/02/18 05:50:30;;;;;;;9.00;2.60;;;;;;;;;;5126272;28;20204;-80
2022/02/18 05:52:56;;;;;;;10.33;2.33;;;6.00;99.90;;;;;;5125974;28;20306;-79
2022/02/18 05:55:22;;;;;;;10.37;2.63;;;;;;;;;;5123948;28;20208;-79
2022/02/18 05:57:48;;;;;;;6.23;1.93;;;;;;;;;;5125371;28;20174;-79
2022/02/18 06:00:14;;;;;;;8.27;2.83;;;;;;;;;;5122703;28;20217;-79
2022/02/18 06:02:42;;;;;;;9.07;2.83;;;;;;;;;;5124725;28;20199;-78
2022/02/18 06:05:08;;;;;;;8.47;2.33;;;6.20;99.90;;;;;;5123444;28;20170;-78
2022/02/18 06:07:34;;;;;;;6.87;1.90;;;6.30;99.90;;;;;;5128982;28;20174;-79
2022/02/18 06:10:01;;;;;;;5.13;2.17;;;6.20;99.90;;;;;;5126044;28;20569;-79
2022/02/18 06:12:26;;;;;;;5.40;2.13;;;6.20;99.90;;;;;;5124486;28;20267;-79
2022/02/18 06:14:53;;;;;;;5.63;2.40;;;;;;;;;;5125329;28;20197;-79
2022/02/18 06:17:21;;;;;;;9.00;2.17;;;6.30;99.90;;;;;;5125369;28;20260;-79
2022/02/18 06:19:47;;;;;;;4.20;2.20;;;6.30;99.90;;;;;;5124855;28;20200;-79
2022/02/18 06:22:14;;;;;;;6.13;2.60;;;6.50;99.90;;;;;;5125216;28;20206;-79
2022/02/18 06:24:40;;;;;;;5.33;2.13;;;7.00;99.90;;;;;;5125580;28;20176;-79
2022/02/18 06:27:06;;;;;;;9.50;2.27;;;6.20;99.90;;;;;;5125575;28;20237;-79
2022/02/18 06:29:32;;;;;;;8.53;2.20;;;;;;;;;;5124867;28;20705;-79
2022/02/18 06:31:57;;;;;;;7.27;2.40;;;6.40;99.90;;;;;;5124803;27;20197;-80
2022/02/18 06:34:24;;;;;;;10.57;2.20;;;6.40;99.90;;;;;;5124168;28;20195;-80
2022/02/18 06:36:51;;;;;;;4.00;2.00;;;6.30;99.90;;;;;;5124912;28;20268;-79
2022/02/18 06:39:21;;;;;;;5.83;2.10;;;6.30;99.90;;;;;;5122990;28;20598;-79
2022/02/18 06:41:47;;;;;;;10.73;2.57;;;6.50;99.90;;;;;;5124659;28;20180;-79
2022/02/18 06:44:14;;;;;;;12.00;2.43;;;6.40;99.90;;;;;;5123982;28;20194;-79
2022/02/18 06:46:40;;;;;;;6.53;2.03;;;6.60;99.90;;;;;;5124299;28;20186;-79
2022/02/18 06:49:06;;;;;;;6.23;1.87;;;;;;;;;;5125263;28;20219;-79
2022/02/18 06:51:32;;;;;;;6.40;1.77;;;6.80;99.90;;;;;;5125045;28;20209;-79
2022/02/18 06:53:58;;;;;;;8.27;2.73;;;;;;;;;;5123740;28;20180;-79
2022/02/18 06:56:24;;;;;;;4.57;1.87;;;;;;;;;;5125359;28;20263;-79
2022/02/18 06:58:50;;;;;;;2.53;1.60;;;7.10;99.90;;;;;;5124171;28;20226;-79
2022/02/18 07:01:16;;;;;;;11.17;2.17;;;;;;;;;;5124760;28;20172;-79
2022/02/18 07:03:42;;;;;;;11.40;1.87;;;7.20;99.90;;;;;;5123710;28;20254;-79
2022/02/18 07:06:08;;;;;;;7.13;2.03;;;;;;;;;;5123669;28;20223;-79
2022/02/18 07:08:34;;;;;;;4.73;2.83;;;7.30;99.90;;;;;;5122819;28;20211;-79
2022/02/18 07:11:00;;;;;;;7.53;3.23;;;;;;;;;;5122013;28;20187;-79
2022/02/18 07:13:26;;;;;;;6.23;2.50;;;7.60;99.90;;;;;;5121380;28;20171;-79
2022/02/18 07:15:52;;;;;;;9.97;3.37;;;;;;;;;;5121352;28;20187;-78
2022/02/18 07:18:17;;;;;;;7.13;2.33;;;7.30;99.90;;;;;;5120703;28;20186;-79
2022/02/18 07:20:45;;;;;;;6.10;2.43;;;7.50;99.90;;;;;;5122186;28;20207;-79
2022/02/18 07:23:11;;;;;;;4.00;1.93;;;7.60;99.90;;;;;;5121364;28;20204;-78
2022/02/18 07:25:37;;;;;;;7.13;2.33;;;;;;;;;;5119922;28;20185;-79
2022/02/18 07:28:03;;;;;;;5.43;2.00;;;;;;;;;;5119487;28;20646;-78
2022/02/18 07:30:29;;;;;;;5.47;1.70;;;;;;;;;;5120506;28;20257;-78
2022/02/18 07:32:55;;;;;;;7.87;2.77;;;7.70;99.90;;;;;;5117507;28;20648;-78
2022/02/18 07:35:21;;;;;;;5.93;2.60;;;7.70;99.90;;;;;;5117323;28;20226;-79
2022/02/18 07:37:49;;;;;;;2.83;1.77;;;;;;;;;;5120450;28;20262;-80
2022/02/18 07:40:16;;;;;;;6.67;2.77;;;7.70;99.90;;;;;;5120645;28;20205;-80
2022/02/18 07:42:43;;;;;;;4.37;1.53;;;8.00;99.90;;;;;;5123025;28;20175;-80
2022/02/18 07:45:12;;;;;;;5.93;1.93;;;7.90;99.90;;;;;;5122391;28;20182;-79
2022/02/18 07:47:37;;;;;;;3.80;1.80;;;8.20;99.90;;;;;;5124254;28;20179;-79
2022/02/18 07:50:05;;;;;;;2.53;1.30;;;8.10;99.90;;;;;;5119651;28;20538;-79
2022/02/18 07:52:31;;;;;;;2.97;1.60;;;;;;;;;;5116661;28;20177;-79
2022/02/18 07:54:56;;;;;;;3.47;1.30;;;8.00;99.90;;;;;;5118213;28;20256;-79
2022/02/18 07:57:24;;;;;;;4.27;1.80;;;8.30;99.90;;;;;;5116669;28;20267;-79
2022/02/18 07:59:49;;;;;;;8.87;1.70;;;8.30;99.90;;;;;;5117147;28;20213;-78
2022/02/18 08:02:16;;;;;;;3.20;1.70;;;8.40;99.90;;;;;;5117186;28;20258;-78
2022/02/18 08:04:42;;;;;;;5.27;1.63;;;8.60;99.90;;;;;;5115989;28;20604;-78
2022/02/18 08:07:08;;;;;;;4.60;1.90;;;;;;;;;;5116070;28;20173;-78
2022/02/18 08:09:34;;;;;;;3.20;1.67;;;;;;;;;;5119894;28;20229;-78
2022/02/18 08:12:01;;;;;;;4.80;2.10;;;8.50;99.90;;;;;;5118599;28;20631;-79
2022/02/18 08:14:27;;;;;;;3.90;1.80;;;8.60;99.90;;;;;;5119281;28;20176;-79
2022/02/18 08:16:52;;;;;;;4.53;1.40;;;8.60;99.90;;;;;;5119105;28;20205;-79
2022/02/18 08:19:20;;;;;;;4.23;1.77;;;;;;;;;;5117310;28;20216;-79
2022/02/18 08:21:47;;;;;;;5.77;2.03;;;8.90;99.90;;;;;;5117700;28;20259;-79
2022/02/18 08:24:17;;;;;;;4.97;1.50;;;8.80;99.90;;;;;;5120280;28;20193;-79
2022/02/18 08:26:48;;;;;;;2.70;1.50;;;9.00;99.90;;;;;;5120248;28;20196;-80
2022/02/18 08:29:15;;;;;;;6.63;1.73;;;9.20;99.90;;;;;;5121429;28;20197;-80
2022/02/18 08:31:44;;;;;;;1.87;1.27;;;9.20;99.90;;;;;;5120008;28;20241;-80
2022/02/18 08:34:10;;;;;;;2.40;1.30;;;9.10;99.90;;;;;;5117286;28;20273;-79
2022/02/18 08:36:36;;;;;;;5.90;1.50;;;9.20;99.90;;;;;;5114604;28;20207;-79
2022/02/18 08:39:03;;;;;;;3.00;1.17;;;9.40;99.90;;;;;;5114200;28;20283;-79
2022/02/18 08:41:30;;;;;;;2.40;1.20;;;9.50;99.90;;;;;;5113702;28;20182;-79
2022/02/18 08:43:58;;;;;;;2.37;1.17;;;;;;;;;;5114145;28;20173;-80
2022/02/18 08:46:24;;;;;;;3.43;1.90;;;9.40;99.90;;;;;;5112804;28;20200;-80
2022/02/18 08:48:50;;;;;;;5.70;1.43;;;9.90;99.90;;;;;;5114604;28;20186;-80
2022/02/18 08:51:16;;;;;;;2.33;1.40;;;9.80;99.90;;;;;;5118884;28;20186;-79
2022/02/18 08:53:42;;;;;;;2.03;1.33;;;;;;;;;;5117864;28;20183;-79
2022/02/18 08:56:08;;;;;;;2.80;1.33;;;9.90;99.90;;;;;;5118217;28;20237;-78
2022/02/18 08:58:33;;;;;;;4.60;1.20;;;10.30;99.90;;;;;;5116758;28;20583;-79
2022/02/18 09:00:59;;;;;;;1.30;1.10;;;9.90;99.90;;;;;;5121019;28;20630;-79
2022/02/18 09:03:25;;;;;;;1.40;1.00;;;9.90;99.90;;;;;;5125214;28;20193;-79
2022/02/18 09:05:50;;;;;;;3.10;1.50;;;9.90;99.90;;;;;;5125775;28;20179;-80
2022/02/18 09:08:16;;;;;;;4.40;1.43;;;10.20;99.90;;;;;;5126402;28;20183;-80
2022/02/18 09:10:43;;;;;;;3.33;1.23;;;10.30;99.90;;;;;;5126373;28;20197;-79
2022/02/18 09:13:09;;;;;;;2.47;1.33;;;10.40;99.90;;;;;;5127708;28;20263;-80
2022/02/18 09:15:34;;;;;;;1.73;0.90;;;10.50;99.90;;;;;;5127519;28;20212;-80
2022/02/18 09:18:00;;;;;;;3.47;1.20;;;10.80;99.90;;;;;;5128007;28;20179;-80
2022/02/18 09:20:26;;;;;;;4.33;1.20;;;;;;;;;;5126227;28;20257;-79
2022/02/18 09:22:53;;;;;;;4.53;1.33;;;;;;;;;;5125698;28;20182;-80
2022/02/18 09:25:19;;;;;;;2.70;0.80;;;10.70;99.90;;;;;;5125481;28;20515;-79
2022/02/18 09:27:46;;;;;;;1.20;0.83;;;10.50;99.90;;;;;;5125623;28;20167;-80
2022/02/18 09:30:12;;;;;;;3.03;1.23;;;;;;;;;;5124390;28;20582;-80
2022/02/18 09:32:38;;;;;;;2.03;1.00;;;10.60;99.90;;;;;;5125037;28;20171;-80
2022/02/18 09:35:04;;;;;;;2.17;1.00;;;10.80;99.90;;;;;;5126069;28;20168;-79
2022/02/18 09:37:31;;;;;;;3.60;1.30;;;10.60;99.90;;;;;;5135674;28;20179;-80
2022/02/18 09:39:57;;;;;;;3.03;1.40;;;10.40;99.90;;;;;;5133279;28;20203;-80
2022/02/18 09:42:24;;;;;;;1.60;1.03;;;10.60;99.90;;;;;;5133138;28;20179;-80
2022/02/18 09:44:50;;;;;;;1.93;0.80;;;10.40;99.90;;;;;;5134822;28;20657;-80
2022/02/18 09:47:16;;;;;;;2.13;1.03;;;10.80;99.90;;;;;;5124603;28;20178;-79
2022/02/18 09:49:43;;;;;;;2.10;1.10;;;10.80;99.90;;;;;;5121005;28;20195;-80
2022/02/18 09:52:11;;;;;;;2.50;0.90;;;10.80;99.90;;;;;;5122242;28;20178;-80
2022/02/18 09:54:37;;;;;;;1.50;0.93;;;10.80;99.90;;;;;;5120926;28;20244;-79
2022/02/18 09:57:03;;;;;;;1.10;0.97;;;11.00;99.90;;;;;;5121824;28;20215;-78
2022/02/18 09:59:29;;;;;;;7.13;2.73;;;11.10;99.90;;;;;;5119664;28;20579;-79
2022/02/18 10:01:55;;;;;;;3.83;1.30;;;11.10;99.90;;;;;;5119660;28;20217;-79
2022/02/18 10:04:21;;;;;;;5.43;2.10;;;11.20;99.90;;;;;;5121737;28;20172;-79
2022/02/18 10:06:48;;;;;;;1.77;0.97;;;11.30;99.90;;;;;;5120800;28;20195;-79
2022/02/18 10:09:13;;;;;;;2.10;1.17;;;11.40;99.90;;;;;;5119217;28;20192;-78
2022/02/18 10:11:55;;;;;;;4.20;3.00;;;11.40;99.90;;;;;;5118410;28;20219;-79
2022/02/18 10:14:20;;;;;;;2.43;1.40;;;11.50;99.90;;;;;;5126256;28;20175;-79
2022/02/18 10:16:46;;;;;;;3.87;1.10;;;11.60;99.90;;;;;;5122069;28;20206;-79
2022/02/18 10:19:13;;;;;;;2.93;0.80;;;11.70;99.90;;;;;;5124302;28;20191;-79
2022/02/18 10:21:40;;;;;;;1.93;1.10;;;11.70;99.90;;;;;;5118722;28;20176;-79
2022/02/18 10:24:14;;;;;;;2.33;1.50;;;11.80;99.90;;;;;;5119767;28;20179;-79
2022/02/18 10:26:51;;;;;;;4.27;1.40;;;11.90;99.90;;;;;;5119845;28;20194;-79
2022/02/18 10:29:23;;;;;;;4.10;1.37;;;12.00;99.90;;;;;;5119220;28;20197;-79
2022/02/18 10:32:14;;;;;;;3.57;1.00;;;12.00;99.90;;;;;;5119413;28;20193;-79
2022/02/18 10:34:58;;;;;;;2.57;1.10;;;12.00;99.90;;;;;;5119580;28;20179;-79
2022/02/18 10:37:26;;;;;;;2.83;1.77;;;12.00;99.90;;;;;;5118991;28;20236;-79
2022/02/18 10:40:05;;;;;;;1.20;0.80;;;12.10;99.90;;;;;;5119253;28;20260;-79
2022/02/18 10:42:30;;;;;;;3.43;1.40;;;12.10;99.90;;;;;;5120387;28;20160;-79
2022/02/18 10:45:08;;;;;;;3.73;1.60;;;12.10;99.90;;;;;;5118514;28;20175;-79
2022/02/18 10:47:34;;;;;;;5.33;4.03;;;12.10;99.90;;;;;;5121329;28;20187;-79
2022/02/18 10:50:01;;;;;;;1.83;0.73;;;12.10;99.90;;;;;;5123926;28;20199;-79
2022/02/18 10:52:27;;;;;;;1.67;1.00;;;12.10;99.90;;;;;;5123096;28;20168;-79
2022/02/18 10:54:53;;;;;;;2.47;1.17;;;12.10;99.90;;;;;;5123786;28;20190;-79
2022/02/18 10:57:24;;;;;;;3.20;1.80;;;12.20;99.90;;;;;;5122567;28;20231;-78
2022/02/18 10:59:52;;;;;;;3.47;1.67;;;12.20;99.60;;;;;;5121520;28;20230;-79
2022/02/18 11:02:45;;;;;;;1.00;0.67;;;12.30;99.10;;;;;;5124784;28;20191;-79
2022/02/18 11:05:29;;;;;;;3.03;1.40;;;12.50;99.10;;;;;;5122936;28;20222;-79
2022/02/18 11:07:56;;;;;;;1.17;0.77;;;12.60;98.50;;;;;;5120762;28;20250;-79
2022/02/18 11:10:48;;;;;;;1.20;0.73;;;12.70;97.90;;;;;;5123433;28;20275;-79
2022/02/18 11:13:15;;;;;;;2.57;1.43;;;12.80;97.80;;;;;;5121897;28;20190;-79
2022/02/18 11:15:41;;;;;;;0.70;0.60;;;12.80;97.60;;;;;;5124762;28;20206;-80
2022/02/18 11:18:08;;;;;;;1.37;0.80;;;13.00;97.50;;;;;;5124555;28;20272;-79
2022/02/18 11:20:35;;;;;;;2.57;0.70;;;13.10;97.00;;;;;;5124751;28;20215;-79
2022/02/18 11:23:01;;;;;;;2.27;1.17;;;13.30;97.10;;;;;;5122395;28;20195;-79
2022/02/18 11:25:26;;;;;;;2.00;0.87;;;13.60;96.50;;;;;;5120200;28;20244;-79
2022/02/18 11:27:53;;;;;;;2.53;0.77;;;13.70;96.50;;;;;;5119119;28;20552;-79
2022/02/18 11:30:19;;;;;;;3.73;0.93;;;14.10;96.80;;;;;;5118970;28;20223;-79
2022/02/18 11:33:01;;;;;;;1.40;0.63;;;14.20;96.80;;;;;;5132400;28;20172;-79
2022/02/18 11:35:51;;;;;;;0.40;0.40;;;14.10;96.30;;;;;;5134593;28;20247;-79
2022/02/18 11:38:31;;;;;;;2.23;0.90;;;14.00;97.00;;;;;;5120831;28;20167;-79
2022/02/18 11:41:07;;;;;;;2.53;1.00;;;13.90;97.30;;;;;;5117464;28;20207;-79
2022/02/18 11:43:34;;;;;;;2.83;1.47;;;13.80;97.20;;;;;;5117516;28;20235;-79
2022/02/18 11:46:05;;;;;;;1.50;0.90;;;13.70;98.00;;;;;;5116026;28;20183;-79
2022/02/18 11:48:35;;;;;;;1.63;0.70;;;13.50;97.30;;;;;;5116919;28;20183;-79
2022/02/18 11:51:08;;;;;;;3.13;0.83;;;13.40;97.40;;;;;;5115808;28;20616;-79
2022/02/18 11:53:45;;;;;;;2.83;1.07;;;13.40;97.40;;;;;;5116319;28;20609;-80
2022/02/18 11:56:14;;;;;;;2.33;0.70;;;13.30;97.60;;;;;;5115677;28;20207;-80
2022/02/18 11:58:51;;;;;;;1.53;0.73;;;13.30;97.60;;;;;;5117981;28;20656;-80
2022/02/18 12:01:18;;;;;;;2.40;1.33;;;13.30;97.90;;;;;;5117611;28;20205;-79
2022/02/18 12:04:13;;;;;;;1.73;1.10;;;13.20;98.00;;;;;;5116694;28;20181;-78
2022/02/18 12:06:38;;;;;;;5.17;2.60;;;13.00;97.70;;;;;;5117756;28;20167;-79
2022/02/18 12:09:04;;;;;;;3.43;0.70;;;13.00;97.80;;;;;;5116473;28;20263;-79
2022/02/18 12:11:43;;;;;;;4.43;1.30;;;13.00;98.20;;;;;;5118233;28;20179;-79
2022/02/18 12:14:11;;;;;;;19.37;9.67;;;12.90;98.60;;;;;;5121111;28;20251;-79
2022/02/18 12:16:37;;;;;;;4.33;3.30;;;12.90;98.80;;;;;;5120844;28;20175;-80
2022/02/18 12:19:07;;;;;;;13.37;5.40;;;12.80;98.50;;;;;;5117605;28;20195;-77
2022/02/18 12:21:53;;;;;;;1.37;0.93;;;12.80;98.50;;;;;;5118830;28;20153;-80
2022/02/18 12:24:52;;;;;;;1.97;1.23;;;12.80;98.40;;;;;;5119147;28;20174;-79
2022/02/18 12:27:27;;;;;;;3.43;1.40;;;12.80;98.50;;;;;;5122343;28;20160;-80
2022/02/18 12:30:00;;;;;;;2.03;1.40;;;12.90;98.00;;;;;;5118452;28;20202;-79
2022/02/18 12:32:26;;;;;;;3.53;1.60;;;12.90;98.40;;;;;;5118433;28;20168;-79
2022/02/18 12:35:04;;;;;;;1.77;0.90;;;12.90;98.20;;;;;;5119257;28;20218;-79
2022/02/18 12:37:30;;;;;;;1.90;0.80;;;12.90;98.10;;;;;;5120770;28;20536;-79
2022/02/18 12:39:57;;;;;;;1.33;1.00;;;12.90;97.60;;;;;;5121483;28;20203;-80
2022/02/18 12:42:29;;;;;;;2.20;1.27;;;12.90;97.40;;;;;;5122868;28;20532;-80
2022/02/18 12:45:02;;;;;;;2.97;0.80;;;13.00;97.40;;;;;;5125784;28;20171;-80
2022/02/18 12:47:30;;;;;;;1.23;0.80;;;13.10;97.20;;;;;;5122459;28;20156;-79
2022/02/18 12:49:59;;;;;;;4.97;0.90;;;13.40;96.10;;;;;;5121453;28;20188;-80
2022/02/18 12:52:27;;;;;;;2.90;1.00;;;13.40;96.40;;;;;;5121113;28;20175;-79
2022/02/18 12:55:01;;;;;;;4.07;1.20;;;13.40;95.80;;;;;;5120908;28;20201;-79
2022/02/18 12:57:29;;;;;;;3.43;0.97;;;13.40;95.50;;;;;;5125438;28;20623;-80
2022/02/18 12:59:54;;;;;;;6.50;1.10;;;13.40;94.80;;;;;;5123883;28;20212;-80
2022/02/18 13:02:39;;;;;;;3.90;0.97;;;13.50;95.50;;;;;;5127153;28;20183;-80
2022/02/18 13:05:20;;;;;;;1.40;0.80;;;13.50;94.90;;;;;;5125323;28;20201;-80
2022/02/18 13:07:54;;;;;;;3.13;1.37;;;13.60;94.90;;;;;;5124165;28;20159;-80